Time;durP1;ratioP1;P1;durP2;ratioP2;P2;SDS_P1;SDS_P2;PMS_P1;PMS_P2;Temp;Humidity;BMP_temperature;BMP_pressure;BME280_temperature;BME280_humidity;BME280_pressure;Samples;Min_cycle;Max_cycle;Signal;HPM_P1;HPM_P2
2021/01/14 00:02:03;;;;;;;31.50;19.65;;;2.50;99.90;;;;;;4984083;28;20369;-75
2021/01/14 00:04:29;;;;;;;19.92;14.45;;;2.40;99.90;;;;;;4991788;28;20118;-75
2021/01/14 00:06:56;;;;;;;27.63;18.05;;;2.50;99.90;;;;;;4993931;28;20559;-75
2021/01/14 00:09:22;;;;;;;34.35;23.85;;;2.50;99.90;;;;;;4986156;28;20074;-75
2021/01/14 00:11:48;;;;;;;27.48;18.73;;;2.50;99.90;;;;;;4989800;28;20062;-75
2021/01/14 00:14:15;;;;;;;19.58;14.80;;;2.60;99.90;;;;;;4988767;28;20383;-75
2021/01/14 00:16:40;;;;;;;22.70;15.27;;;2.60;99.90;;;;;;4970769;28;20670;-75
2021/01/14 00:19:06;;;;;;;12.05;8.88;;;2.50;99.90;;;;;;4970407;28;20205;-75
2021/01/14 00:21:44;;;;;;;19.00;13.50;;;2.60;99.90;;;;;;4983891;28;20492;-75
2021/01/14 00:24:10;;;;;;;22.85;19.50;;;2.60;99.90;;;;;;4988790;28;20034;-76
2021/01/14 00:26:36;;;;;;;26.15;21.67;;;2.70;99.90;;;;;;4987043;28;20049;-75
2021/01/14 00:29:03;;;;;;;27.42;21.52;;;2.70;99.90;;;;;;4989524;28;20034;-75
2021/01/14 00:31:29;;;;;;;36.30;28.13;;;2.60;99.90;;;;;;4988411;28;20462;-75
2021/01/14 00:33:55;;;;;;;30.02;24.17;;;2.70;99.90;;;;;;4989417;28;20097;-75
2021/01/14 00:36:30;;;;;;;28.73;21.05;;;2.60;99.90;;;;;;4985982;28;20034;-75
2021/01/14 00:39:05;;;;;;;27.73;18.88;;;2.60;99.90;;;;;;4987875;28;20539;-75
2021/01/14 00:41:37;;;;;;;19.70;15.13;;;2.50;99.90;;;;;;4989084;28;20037;-75
2021/01/14 00:44:02;;;;;;;;;;;2.50;99.90;;;;;;4985079;28;20523;-75
2021/01/14 00:46:28;;;;;;;20.30;14.70;;;2.50;99.90;;;;;;4988454;28;19913;-75
2021/01/14 00:48:54;;;;;;;21.50;14.55;;;2.50;99.90;;;;;;4979746;28;20412;-75
2021/01/14 00:51:19;;;;;;;18.60;13.73;;;2.50;99.90;;;;;;4991523;28;20026;-75
2021/01/14 00:53:45;;;;;;;27.90;19.40;;;2.50;99.90;;;;;;4988905;28;20078;-75
2021/01/14 00:56:10;;;;;;;33.20;23.38;;;2.50;99.90;;;;;;4993731;28;20038;-76
2021/01/14 00:58:36;;;;;;;29.95;19.13;;;2.50;99.90;;;;;;4988996;28;20046;-75
2021/01/14 01:01:02;;;;;;;25.92;17.33;;;2.50;99.90;;;;;;4982579;28;20026;-75
2021/01/14 01:03:28;;;;;;;26.27;17.95;;;2.50;99.90;;;;;;4989738;28;20109;-75
2021/01/14 01:05:54;;;;;;;23.50;16.92;;;2.50;99.90;;;;;;4994014;28;20026;-75
2021/01/14 01:08:19;;;;;;;31.98;21.70;;;2.50;99.90;;;;;;4988430;28;20042;-75
2021/01/14 01:10:45;;;;;;;31.60;24.05;;;2.50;99.90;;;;;;4988034;28;20391;-75
2021/01/14 01:13:10;;;;;;;23.75;17.83;;;2.60;99.90;;;;;;4987745;28;20680;-75
2021/01/14 01:15:36;;;;;;;19.70;13.25;;;2.50;99.90;;;;;;4985166;28;20073;-76
2021/01/14 01:18:02;;;;;;;12.70;7.85;;;2.50;99.90;;;;;;4988533;28;20137;-75
2021/01/14 01:20:27;;;;;;;10.70;7.03;;;2.50;99.90;;;;;;4988291;28;20476;-75
2021/01/14 01:22:56;;;;;;;16.13;10.48;;;2.50;99.90;;;;;;4987894;28;20461;-75
2021/01/14 01:25:21;;;;;;;16.42;11.88;;;2.50;99.90;;;;;;4987052;28;20023;-76
2021/01/14 01:27:47;;;;;;;19.45;13.98;;;2.60;99.90;;;;;;4986833;28;20054;-76
2021/01/14 01:30:13;;;;;;;28.00;18.50;;;2.50;99.90;;;;;;4986688;28;20053;-75
2021/01/14 01:32:39;;;;;;;38.03;23.50;;;2.60;99.90;;;;;;4986917;28;20038;-75
2021/01/14 01:35:05;;;;;;;30.58;17.98;;;2.60;99.90;;;;;;4985804;28;20384;-76
2021/01/14 01:37:31;;;;;;;24.45;16.60;;;2.60;99.90;;;;;;4988195;28;20034;-76
2021/01/14 01:39:58;;;;;;;28.75;18.88;;;2.60;99.90;;;;;;4988085;28;20023;-75
2021/01/14 01:42:23;;;;;;;34.90;23.88;;;2.60;99.90;;;;;;4987726;28;20040;-75
2021/01/14 01:44:49;;;;;;;33.28;23.23;;;2.60;99.90;;;;;;4986732;28;20467;-76
2021/01/14 01:47:15;;;;;;;27.83;18.55;;;2.50;99.90;;;;;;4986795;28;20586;-76
2021/01/14 01:49:41;;;;;;;33.55;20.13;;;2.60;99.90;;;;;;4986661;28;20381;-76
2021/01/14 01:52:08;;;;;;;25.17;15.85;;;2.50;99.90;;;;;;4987492;28;20403;-76
2021/01/14 01:54:35;;;;;;;30.70;20.60;;;2.50;99.90;;;;;;4985829;28;20188;-76
2021/01/14 01:57:08;;;;;;;27.35;17.42;;;2.50;99.90;;;;;;4986253;28;20033;-74
2021/01/14 01:59:34;;;;;;;30.98;18.55;;;2.50;99.90;;;;;;4985496;28;20113;-75
2021/01/14 02:02:19;;;;;;;20.10;16.05;;;2.50;99.90;;;;;;4987777;28;20165;-76
2021/01/14 02:04:45;;;;;;;23.45;16.25;;;2.50;99.90;;;;;;4986189;28;20431;-75
2021/01/14 02:07:14;;;;;;;24.60;16.65;;;2.50;99.90;;;;;;4984844;28;20027;-76
2021/01/14 02:09:41;;;;;;;21.60;15.77;;;2.50;99.90;;;;;;4990445;28;20368;-75
2021/01/14 02:12:08;;;;;;;28.48;20.85;;;2.50;99.90;;;;;;4993029;28;20610;-76
2021/01/14 02:14:36;;;;;;;29.20;20.75;;;2.50;99.90;;;;;;4992597;28;20797;-75
2021/01/14 02:17:03;;;;;;;15.20;10.43;;;2.60;99.90;;;;;;4968285;28;20023;-76
2021/01/14 02:19:39;;;;;;;42.97;30.00;;;2.60;99.90;;;;;;4967488;28;20114;-75
2021/01/14 02:22:37;;;;;;;33.47;23.30;;;2.60;99.90;;;;;;4984116;28;20022;-75
2021/01/14 02:25:16;;;;;;;24.67;17.42;;;2.60;99.90;;;;;;4985210;28;20500;-75
2021/01/14 02:27:44;;;;;;;28.15;21.10;;;2.60;99.90;;;;;;4966617;28;20031;-75
2021/01/14 02:30:12;;;;;;;26.25;19.55;;;2.60;99.90;;;;;;4966476;28;20053;-75
2021/01/14 02:32:38;;;;;;;29.42;22.58;;;2.50;99.90;;;;;;4985171;28;20034;-76
2021/01/14 02:35:04;;;;;;;24.70;18.88;;;2.50;99.90;;;;;;4986558;28;20049;-75
2021/01/14 02:37:30;;;;;;;29.50;20.48;;;2.60;99.90;;;;;;4984785;28;20105;-75
2021/01/14 02:39:56;;;;;;;35.92;25.55;;;2.60;99.90;;;;;;4985793;28;20133;-74
2021/01/14 02:42:21;;;;;;;44.22;28.40;;;2.60;99.90;;;;;;4985706;28;20109;-76
2021/01/14 02:44:47;;;;;;;25.05;17.33;;;2.60;99.90;;;;;;4986706;28;20046;-76
2021/01/14 02:47:16;;;;;;;17.33;10.90;;;2.60;99.90;;;;;;4974385;28;20046;-76
2021/01/14 02:49:50;;;;;;;24.80;9.57;;;2.50;99.90;;;;;;4966209;28;20038;-76
2021/01/14 02:52:16;;;;;;;10.95;7.82;;;2.60;99.90;;;;;;4975713;28;20026;-75
2021/01/14 02:54:43;;;;;;;13.23;7.43;;;2.60;99.90;;;;;;4985237;28;20082;-75
2021/01/14 02:57:10;;;;;;;11.15;6.65;;;2.60;99.90;;;;;;4984417;28;20062;-75
2021/01/14 02:59:38;;;;;;;16.08;11.20;;;2.70;99.90;;;;;;4986015;28;20473;-75
2021/01/14 03:02:03;;;;;;;15.43;10.48;;;2.70;99.90;;;;;;4985190;28;20841;-75
2021/01/14 03:04:29;;;;;;;23.45;18.23;;;2.70;99.90;;;;;;4982099;28;20038;-75
2021/01/14 03:06:55;;;;;;;20.50;13.13;;;2.70;99.90;;;;;;4987108;28;20088;-75
2021/01/14 03:09:20;;;;;;;18.38;10.02;;;2.70;99.90;;;;;;4979810;28;20531;-75
2021/01/14 03:11:46;;;;;;;27.77;15.95;;;2.70;99.90;;;;;;4984596;28;20069;-75
2021/01/14 03:14:11;;;;;;;18.02;11.90;;;2.60;99.90;;;;;;4985333;28;20050;-75
2021/01/14 03:16:38;;;;;;;19.25;11.50;;;2.50;99.90;;;;;;4983699;28;20038;-75
2021/01/14 03:19:04;;;;;;;16.25;10.93;;;2.50;99.90;;;;;;4983408;28;20038;-74
2021/01/14 03:21:30;;;;;;;14.95;10.68;;;2.60;99.90;;;;;;4983732;28;20037;-76
2021/01/14 03:23:56;;;;;;;14.38;10.13;;;2.60;99.90;;;;;;4967158;28;20507;-76
2021/01/14 03:26:21;;;;;;;16.30;10.60;;;2.50;99.90;;;;;;4964264;28;20598;-76
2021/01/14 03:28:48;;;;;;;26.65;17.30;;;2.50;99.90;;;;;;4964064;28;20050;-75
2021/01/14 03:31:15;;;;;;;23.60;16.67;;;2.60;99.90;;;;;;4964158;28;20031;-75
2021/01/14 03:33:42;;;;;;;22.90;17.50;;;2.60;99.90;;;;;;4975357;28;20042;-75
2021/01/14 03:36:09;;;;;;;25.33;15.55;;;2.60;99.90;;;;;;4984018;28;20473;-75
2021/01/14 03:38:36;;;;;;;19.40;12.45;;;2.60;99.90;;;;;;4987217;28;20370;-76
2021/01/14 03:41:10;;;;;;;18.33;13.15;;;2.60;99.90;;;;;;4988573;28;20379;-75
2021/01/14 03:43:36;;;;;;;28.95;19.05;;;2.60;99.90;;;;;;4988186;28;20034;-75
2021/01/14 03:46:07;;;;;;;17.48;12.70;;;2.70;99.90;;;;;;4989789;28;20030;-76
2021/01/14 03:48:39;;;;;;;22.92;15.20;;;2.60;99.90;;;;;;4988934;28;20429;-76
2021/01/14 03:51:12;;;;;;;22.30;15.43;;;2.70;99.90;;;;;;4989786;28;20069;-75
2021/01/14 03:53:37;;;;;;;21.92;15.07;;;2.70;99.90;;;;;;4987689;28;20481;-75
2021/01/14 03:56:03;;;;;;;19.05;12.45;;;2.70;99.90;;;;;;4989944;28;20066;-75
2021/01/14 03:58:29;;;;;;;16.98;12.52;;;2.70;99.90;;;;;;4988257;28;20042;-75
2021/01/14 04:00:54;;;;;;;13.63;6.55;;;2.60;99.90;;;;;;4988577;28;20026;-76
2021/01/14 04:03:20;;;;;;;7.30;4.35;;;2.70;99.90;;;;;;4988379;28;20046;-75
2021/01/14 04:05:49;;;;;;;11.95;8.02;;;2.80;99.90;;;;;;4988721;28;20045;-75
2021/01/14 04:08:14;;;;;;;12.55;9.57;;;2.80;99.90;;;;;;4988305;28;20035;-76
2021/01/14 04:10:40;;;;;;;20.52;15.57;;;2.80;99.90;;;;;;4988490;28;20033;-76
2021/01/14 04:13:05;;;;;;;27.15;17.35;;;2.80;99.90;;;;;;4989357;28;20053;-75
2021/01/14 04:15:31;;;;;;;31.90;20.50;;;2.80;99.90;;;;;;4987945;28;20539;-76
2021/01/14 04:17:57;;;;;;;23.00;15.60;;;2.80;99.90;;;;;;4988838;28;20046;-75
2021/01/14 04:20:22;;;;;;;27.75;16.40;;;2.80;99.90;;;;;;4976836;28;20424;-75
2021/01/14 04:22:50;;;;;;;18.85;13.50;;;2.70;99.90;;;;;;4969934;28;20039;-76
2021/01/14 04:25:15;;;;;;;34.60;20.90;;;2.70;99.90;;;;;;4975782;28;20019;-76
2021/01/14 04:27:41;;;;;;;46.58;29.40;;;2.60;99.90;;;;;;4988986;28;20030;-75
2021/01/14 04:30:07;;;;;;;54.70;33.45;;;2.70;99.90;;;;;;4989851;28;20030;-75
2021/01/14 04:32:33;;;;;;;19.38;8.18;;;2.70;99.90;;;;;;4984084;28;20087;-76
2021/01/14 04:34:59;;;;;;;33.88;15.63;;;2.70;99.90;;;;;;4989237;28;20062;-76
2021/01/14 04:37:25;;;;;;;12.63;7.65;;;2.80;99.90;;;;;;4989665;28;20030;-75
2021/01/14 04:39:50;;;;;;;12.13;6.70;;;2.80;99.90;;;;;;4979347;28;20431;-76
2021/01/14 04:42:18;;;;;;;10.65;6.75;;;2.80;99.90;;;;;;4968502;28;20063;-76
2021/01/14 04:44:44;;;;;;;14.93;10.93;;;2.80;99.90;;;;;;4974517;28;20380;-75
2021/01/14 04:47:15;;;;;;;15.45;10.52;;;2.80;99.90;;;;;;4988651;28;20034;-75
2021/01/14 04:49:42;;;;;;;17.42;11.25;;;2.80;99.90;;;;;;4986173;28;20037;-75
2021/01/14 04:52:16;;;;;;;17.48;11.68;;;2.80;99.90;;;;;;4987397;28;20042;-76
2021/01/14 04:54:43;;;;;;;15.23;8.98;;;2.80;99.90;;;;;;4987082;28;20523;-76
2021/01/14 04:57:18;;;;;;;17.23;10.38;;;2.80;99.90;;;;;;4976887;28;20393;-75
2021/01/14 04:59:52;;;;;;;13.90;10.07;;;2.70;99.90;;;;;;4968022;28;20031;-75
2021/01/14 05:02:24;;;;;;;27.40;16.17;;;2.70;99.90;;;;;;4977448;28;20070;-76
2021/01/14 05:04:52;;;;;;;15.15;10.48;;;2.70;99.90;;;;;;4989571;28;20038;-75
2021/01/14 05:07:31;;;;;;;19.80;13.32;;;2.60;99.90;;;;;;4986858;28;20283;-75
2021/01/14 05:10:03;;;;;;;16.38;9.48;;;2.70;99.90;;;;;;4986960;28;20041;-75
2021/01/14 05:12:32;;;;;;;20.02;14.20;;;2.60;99.90;;;;;;4986487;28;20042;-76
2021/01/14 05:14:57;;;;;;;22.40;15.48;;;2.60;99.90;;;;;;4988373;28;20474;-76
2021/01/14 05:17:23;;;;;;;19.98;15.60;;;2.60;99.90;;;;;;4986163;28;20026;-75
2021/01/14 05:19:56;;;;;;;18.75;14.32;;;2.60;99.90;;;;;;4986626;28;20401;-76
2021/01/14 05:22:25;;;;;;;22.08;15.70;;;2.60;99.90;;;;;;4986678;28;20065;-76
2021/01/14 05:25:10;;;;;;;21.70;15.60;;;2.60;99.90;;;;;;4987741;28;20038;-75
2021/01/14 05:27:37;;;;;;;19.92;15.10;;;2.60;99.90;;;;;;4986962;28;20069;-76
2021/01/14 05:30:12;;;;;;;20.52;14.00;;;2.60;99.90;;;;;;4989419;28;20376;-76
2021/01/14 05:32:43;;;;;;;26.42;16.52;;;2.60;99.90;;;;;;4986497;28;20034;-76
2021/01/14 05:35:11;;;;;;;26.30;20.30;;;2.50;99.90;;;;;;4986696;28;20471;-76
2021/01/14 05:37:44;;;;;;;28.77;18.73;;;2.60;99.90;;;;;;4986240;28;20031;-75
2021/01/14 05:40:12;;;;;;;42.33;24.77;;;2.50;99.90;;;;;;4988324;28;20034;-76
2021/01/14 05:42:39;;;;;;;25.88;19.50;;;2.50;99.90;;;;;;4987184;28;20027;-76
2021/01/14 05:45:20;;;;;;;25.65;17.85;;;2.50;99.90;;;;;;4986434;28;20033;-76
2021/01/14 05:47:46;;;;;;;20.80;14.77;;;2.50;99.90;;;;;;4987074;28;20026;-76
2021/01/14 05:50:12;;;;;;;27.08;19.58;;;2.50;99.90;;;;;;4976884;28;20046;-76
2021/01/14 05:52:39;;;;;;;22.30;14.65;;;2.50;99.90;;;;;;4967124;28;20129;-76
2021/01/14 05:55:10;;;;;;;39.80;29.13;;;2.60;99.90;;;;;;4973304;28;20484;-76
2021/01/14 05:57:39;;;;;;;57.92;38.30;;;2.60;99.90;;;;;;4986166;28;20022;-75
2021/01/14 06:00:09;;;;;;;33.42;27.52;;;2.50;99.90;;;;;;4985305;28;20543;-76
2021/01/14 06:02:36;;;;;;;40.05;26.88;;;2.40;99.90;;;;;;4986423;28;20121;-76
2021/01/14 06:05:02;;;;;;;40.88;22.63;;;2.50;99.90;;;;;;4986691;28;20472;-76
2021/01/14 06:07:39;;;;;;;37.13;22.60;;;2.50;99.90;;;;;;4969196;28;20069;-76
2021/01/14 06:10:06;;;;;;;33.72;22.33;;;2.50;99.90;;;;;;4968168;28;20487;-76
2021/01/14 06:12:32;;;;;;;25.20;19.70;;;2.50;99.90;;;;;;4976701;28;20031;-76
2021/01/14 06:14:58;;;;;;;27.50;21.20;;;2.50;99.90;;;;;;4978533;28;20310;-76
2021/01/14 06:17:33;;;;;;;36.35;23.17;;;2.50;99.90;;;;;;4975732;28;20027;-76
2021/01/14 06:20:07;;;;;;;39.17;26.98;;;2.50;99.90;;;;;;4980916;28;20045;-76
2021/01/14 06:22:35;;;;;;;33.80;23.48;;;2.50;99.90;;;;;;4978960;28;20578;-75
2021/01/14 06:25:04;;;;;;;26.55;20.38;;;2.50;99.90;;;;;;4982708;28;20031;-75
2021/01/14 06:27:31;;;;;;;35.50;21.48;;;2.50;99.90;;;;;;4977630;28;20515;-76
2021/01/14 06:30:01;;;;;;;30.35;21.10;;;2.50;99.90;;;;;;4985389;28;20039;-76
2021/01/14 06:32:27;;;;;;;31.00;21.42;;;2.50;99.90;;;;;;4977423;28;20034;-76
2021/01/14 06:34:52;;;;;;;31.10;19.85;;;2.50;99.90;;;;;;4981008;28;20048;-76
2021/01/14 06:37:21;;;;;;;26.55;18.70;;;2.50;99.90;;;;;;4982634;28;20071;-76
2021/01/14 06:39:48;;;;;;;23.90;16.40;;;2.60;99.90;;;;;;4985914;28;20054;-76
2021/01/14 06:42:35;;;;;;;27.75;17.08;;;2.60;99.90;;;;;;4988850;28;20029;-75
2021/01/14 06:45:09;;;;;;;23.55;16.95;;;2.60;99.90;;;;;;4980687;28;20041;-75
2021/01/14 06:47:45;;;;;;;22.02;15.55;;;2.50;99.90;;;;;;4982788;28;20041;-76
2021/01/14 06:50:25;;;;;;;28.52;17.33;;;2.60;99.90;;;;;;4976321;28;20103;-76
2021/01/14 06:52:53;;;;;;;25.52;16.70;;;2.60;99.90;;;;;;4978614;28;20042;-76
2021/01/14 06:55:23;;;;;;;33.08;19.42;;;2.60;99.90;;;;;;4986962;28;20648;-76
2021/01/14 06:58:14;;;;;;;40.63;25.50;;;2.60;99.90;;;;;;4979677;28;20204;-76
2021/01/14 07:00:47;;;;;;;37.13;23.50;;;2.60;99.90;;;;;;4977629;28;20032;-76
2021/01/14 07:03:13;;;;;;;32.42;22.08;;;2.60;99.90;;;;;;4985604;28;20465;-76
2021/01/14 07:05:51;;;;;;;34.05;23.48;;;2.50;99.90;;;;;;4983964;28;20041;-76
2021/01/14 07:08:37;;;;;;;30.05;20.35;;;2.50;99.90;;;;;;4974188;28;20092;-76
2021/01/14 07:11:07;;;;;;;28.52;19.48;;;2.50;99.90;;;;;;4979858;28;20061;-76
2021/01/14 07:13:36;;;;;;;41.22;22.90;;;2.50;99.90;;;;;;4981436;28;20077;-76
2021/01/14 07:16:03;;;;;;;34.55;22.05;;;2.50;99.90;;;;;;4976160;28;20038;-75
2021/01/14 07:18:34;;;;;;;31.08;19.25;;;2.50;99.90;;;;;;4975364;28;20084;-76
2021/01/14 07:21:11;;;;;;;21.60;15.23;;;2.50;99.90;;;;;;4979383;28;20031;-76
2021/01/14 07:23:42;;;;;;;11.88;8.60;;;2.60;99.90;;;;;;4980860;28;20105;-76
2021/01/14 07:26:09;;;;;;;18.00;11.93;;;2.60;99.90;;;;;;4977714;28;20031;-76
2021/01/14 07:28:36;;;;;;;36.00;22.15;;;2.70;99.90;;;;;;4980831;28;20042;-76
2021/01/14 07:31:23;;;;;;;48.22;30.17;;;2.70;99.90;;;;;;4981290;28;20035;-74
2021/01/14 07:33:48;;;;;;;35.83;25.08;;;2.70;99.90;;;;;;4971646;28;20502;-76
2021/01/14 07:36:25;;;;;;;46.30;29.60;;;2.60;99.90;;;;;;4975834;28;20035;-76
2021/01/14 07:38:56;;;;;;;37.75;23.67;;;2.60;99.90;;;;;;4978010;28;20038;-76
2021/01/14 07:41:22;;;;;;;48.63;30.55;;;2.60;99.90;;;;;;4977148;28;20077;-76
2021/01/14 07:43:49;;;;;;;41.33;25.83;;;2.60;99.90;;;;;;4985395;28;20380;-76
2021/01/14 07:46:20;;;;;;;29.92;20.60;;;2.60;99.90;;;;;;4982209;28;20419;-76
2021/01/14 07:48:46;;;;;;;32.40;21.90;;;2.70;99.90;;;;;;4976119;28;20046;-76
2021/01/14 07:51:12;;;;;;;34.47;24.02;;;2.70;99.90;;;;;;4974271;28;20436;-76
2021/01/14 07:53:38;;;;;;;37.15;25.70;;;2.70;99.90;;;;;;4976822;28;20102;-76
2021/01/14 07:56:24;;;;;;;36.63;27.20;;;2.60;99.90;;;;;;4977720;28;20414;-76
2021/01/14 07:58:58;;;;;;;54.67;31.38;;;2.70;99.90;;;;;;4972070;28;20448;-76
2021/01/14 08:01:24;;;;;;;39.67;26.50;;;2.70;99.90;;;;;;4980114;28;20471;-76
2021/01/14 08:03:50;;;;;;;30.80;20.50;;;2.70;99.90;;;;;;4980562;28;20074;-75
2021/01/14 08:06:45;;;;;;;34.95;22.73;;;2.70;99.90;;;;;;4981034;28;20104;-76
2021/01/14 08:09:11;;;;;;;37.70;25.88;;;2.70;99.90;;;;;;4974783;28;20468;-76
2021/01/14 08:11:43;;;;;;;42.85;29.40;;;2.80;99.90;;;;;;4973554;28;20037;-76
2021/01/14 08:14:13;;;;;;;45.35;32.67;;;2.80;99.90;;;;;;4986741;28;20097;-76
2021/01/14 08:16:40;;;;;;;53.20;37.13;;;2.90;99.90;;;;;;4974791;28;20038;-76
2021/01/14 08:19:11;;;;;;;58.35;38.63;;;2.90;99.90;;;;;;4985090;28;20216;-76
2021/01/14 08:21:37;;;;;;;49.27;31.33;;;2.80;99.90;;;;;;4979807;28;20030;-76
2021/01/14 08:24:03;;;;;;;36.72;24.92;;;2.80;99.90;;;;;;4983588;28;20281;-76
2021/01/14 08:26:29;;;;;;;36.05;24.25;;;2.90;99.90;;;;;;4977705;28;20534;-76
2021/01/14 08:29:02;;;;;;;33.55;21.98;;;2.80;99.90;;;;;;4984694;28;20038;-76
2021/01/14 08:31:37;;;;;;;;;;;2.80;99.90;;;;;;4982353;28;20085;-75
2021/01/14 08:34:05;;;;;;;39.15;25.75;;;2.80;99.90;;;;;;4975578;28;20392;-76
2021/01/14 08:36:40;;;;;;;40.55;23.48;;;2.80;99.90;;;;;;4980326;28;20496;-76
2021/01/14 08:39:09;;;;;;;44.47;26.27;;;2.80;99.90;;;;;;4984990;28;20046;-76
2021/01/14 08:41:37;;;;;;;44.25;27.55;;;2.80;99.90;;;;;;4980175;28;20380;-76
2021/01/14 08:44:04;;;;;;;43.00;24.77;;;2.90;99.90;;;;;;4975182;28;20034;-76
2021/01/14 08:46:40;;;;;;;43.95;25.80;;;2.90;99.90;;;;;;4974812;28;20043;-76
2021/01/14 08:49:13;;;;;;;39.70;27.25;;;3.00;99.90;;;;;;4986274;28;20030;-76
2021/01/14 08:51:40;;;;;;;82.22;54.00;;;3.10;99.90;;;;;;4981482;28;20089;-76
2021/01/14 08:54:07;;;;;;;84.65;57.25;;;3.10;99.90;;;;;;4979016;28;20069;-75
2021/01/14 08:56:33;;;;;;;75.07;53.95;;;3.10;99.90;;;;;;4984351;28;20041;-76
2021/01/14 08:59:11;;;;;;;48.92;35.05;;;3.10;99.90;;;;;;4986008;28;20049;-76
2021/01/14 09:01:37;;;;;;;49.83;32.53;;;3.10;99.90;;;;;;4982738;28;20465;-75
2021/01/14 09:04:06;;;;;;;45.72;31.63;;;3.10;99.90;;;;;;4985388;28;20102;-76
2021/01/14 09:06:33;;;;;;;40.28;26.52;;;3.00;99.90;;;;;;4974805;28;20396;-76
2021/01/14 09:09:02;;;;;;;37.85;24.67;;;3.10;99.90;;;;;;4993111;28;20084;-76
2021/01/14 09:11:29;;;;;;;46.13;33.55;;;3.10;99.90;;;;;;4977689;28;20034;-74
2021/01/14 09:14:19;;;;;;;49.60;32.35;;;3.10;99.90;;;;;;4978566;28;20042;-76
2021/01/14 09:16:46;;;;;;;53.55;40.05;;;3.20;99.90;;;;;;4978785;28;20073;-76
2021/01/14 09:19:16;;;;;;;45.28;30.50;;;3.20;99.90;;;;;;4982546;28;20176;-76
2021/01/14 09:21:42;;;;;;;49.00;32.88;;;3.10;99.90;;;;;;4982432;28;20567;-76
2021/01/14 09:24:13;;;;;;;49.72;36.10;;;3.10;99.90;;;;;;4981214;28;20133;-75
2021/01/14 09:26:41;;;;;;;48.47;30.27;;;3.20;99.90;;;;;;4981953;28;20038;-76
2021/01/14 09:29:08;;;;;;;39.97;28.05;;;3.20;99.90;;;;;;4985731;28;20038;-76
2021/01/14 09:31:34;;;;;;;52.22;35.72;;;3.20;99.90;;;;;;4978148;28;20030;-74
2021/01/14 09:34:00;;;;;;;64.05;44.95;;;3.20;99.90;;;;;;4974091;28;20035;-76
2021/01/14 09:36:26;;;;;;;41.25;28.25;;;3.20;99.90;;;;;;4977937;28;20034;-76
2021/01/14 09:38:53;;;;;;;48.28;30.20;;;3.20;99.90;;;;;;4981221;28;20050;-76
2021/01/14 09:41:30;;;;;;;46.13;27.60;;;3.20;99.90;;;;;;4978734;28;20393;-75
2021/01/14 09:44:11;;;;;;;39.92;26.40;;;3.30;99.90;;;;;;4982270;28;20032;-75
2021/01/14 09:46:42;;;;;;;38.28;23.15;;;3.20;99.90;;;;;;4985243;28;20034;-75
2021/01/14 09:49:11;;;;;;;24.30;15.07;;;3.20;99.90;;;;;;4982106;28;20030;-76
2021/01/14 09:51:38;;;;;;;12.45;6.90;;;3.20;99.90;;;;;;4976761;28;20031;-75
2021/01/14 09:54:05;;;;;;;12.75;6.88;;;3.10;99.90;;;;;;4977584;28;20046;-75
2021/01/14 09:56:43;;;;;;;13.00;8.18;;;3.20;99.90;;;;;;4980744;28;20027;-76
2021/01/14 09:59:26;;;;;;;38.55;22.00;;;3.20;99.90;;;;;;4984003;28;20050;-75
2021/01/14 10:02:00;;;;;;;45.70;28.38;;;3.30;99.90;;;;;;4977337;28;20476;-76
2021/01/14 10:04:27;;;;;;;48.78;29.55;;;3.30;99.90;;;;;;4982037;28;20049;-76
2021/01/14 10:07:16;;;;;;;43.30;27.13;;;3.30;99.90;;;;;;4984346;28;20026;-74
2021/01/14 10:09:42;;;;;;;46.05;30.65;;;3.40;99.90;;;;;;4975152;28;20396;-75
2021/01/14 10:12:09;;;;;;;34.75;23.10;;;3.40;99.90;;;;;;4980307;28;20026;-76
2021/01/14 10:14:35;;;;;;;39.35;25.23;;;3.40;99.90;;;;;;4984594;28;20531;-76
2021/01/14 10:17:14;;;;;;;38.03;25.00;;;3.40;99.90;;;;;;4981514;28;20097;-76
2021/01/14 10:19:51;;;;;;;25.38;18.63;;;3.30;99.90;;;;;;4986271;28;20053;-76
2021/01/14 10:22:17;;;;;;;12.50;8.88;;;3.40;99.90;;;;;;4981223;28;20022;-75
2021/01/14 10:24:43;;;;;;;13.50;8.45;;;3.50;99.90;;;;;;4989305;28;20038;-76
2021/01/14 10:27:21;;;;;;;17.27;11.98;;;3.50;99.90;;;;;;4980322;28;20579;-75
2021/01/14 10:29:48;;;;;;;20.95;14.25;;;3.50;99.90;;;;;;4973481;28;20058;-75
2021/01/14 10:32:21;;;;;;;22.98;14.65;;;3.50;99.90;;;;;;4978988;28;20496;-76
2021/01/14 10:34:49;;;;;;;25.92;17.98;;;3.50;99.90;;;;;;4995422;28;20043;-76
2021/01/14 10:37:31;;;;;;;29.17;18.83;;;3.40;99.90;;;;;;4981657;28;20036;-76
2021/01/14 10:40:00;;;;;;;31.13;19.95;;;3.40;99.90;;;;;;4976695;28;20026;-76
2021/01/14 10:42:36;;;;;;;31.95;19.90;;;3.40;99.90;;;;;;4981433;28;20611;-76
2021/01/14 10:45:08;;;;;;;31.00;19.63;;;3.40;99.90;;;;;;4987686;28;20125;-76
2021/01/14 10:47:35;;;;;;;29.58;18.63;;;3.40;99.90;;;;;;4979759;28;20026;-76
2021/01/14 10:50:18;;;;;;;37.67;23.15;;;3.40;99.90;;;;;;4976792;28;20047;-75
2021/01/14 10:53:04;;;;;;;30.67;18.45;;;3.40;99.90;;;;;;4987288;28;20031;-76
2021/01/14 10:55:30;;;;;;;42.60;25.25;;;3.20;99.90;;;;;;4982189;28;20458;-75
2021/01/14 10:57:58;;;;;;;32.80;19.10;;;3.30;99.90;;;;;;4982444;28;20042;-76
2021/01/14 11:00:27;;;;;;;45.55;30.35;;;3.30;99.90;;;;;;4980762;28;20035;-76
2021/01/14 11:03:14;;;;;;;46.75;30.65;;;3.40;99.90;;;;;;4980511;28;20100;-76
2021/01/14 11:05:52;;;;;;;61.85;39.85;;;3.40;99.90;;;;;;4978491;28;20027;-76
2021/01/14 11:08:20;;;;;;;84.90;56.90;;;3.40;99.90;;;;;;4978302;28;20363;-76
2021/01/14 11:10:48;;;;;;;60.10;41.45;;;3.40;99.90;;;;;;4979082;28;20031;-76
2021/01/14 11:13:16;;;;;;;44.15;28.15;;;3.40;99.90;;;;;;4972941;28;20490;-75
2021/01/14 11:15:42;;;;;;;39.97;25.30;;;3.40;99.90;;;;;;4974702;28;20042;-75
2021/01/14 11:18:09;;;;;;;36.58;24.08;;;3.40;99.90;;;;;;4979713;28;20114;-76
2021/01/14 11:20:36;;;;;;;35.08;25.13;;;3.40;99.90;;;;;;4978049;28;20440;-76
2021/01/14 11:23:02;;;;;;;38.17;24.63;;;3.40;99.90;;;;;;4975906;28;20102;-76
2021/01/14 11:25:28;;;;;;;48.25;27.55;;;3.40;99.90;;;;;;4981786;28;20032;-75
2021/01/14 11:27:53;;;;;;;39.60;25.80;;;3.50;99.90;;;;;;4981818;28;20034;-76
2021/01/14 11:30:20;;;;;;;36.22;24.10;;;3.50;99.90;;;;;;4978665;28;20030;-75
2021/01/14 11:32:46;;;;;;;36.60;23.58;;;3.50;99.90;;;;;;4980545;28;20034;-75
2021/01/14 11:35:13;;;;;;;38.08;24.55;;;3.50;99.90;;;;;;4971569;28;20042;-76
2021/01/14 11:37:39;;;;;;;44.15;28.73;;;3.50;99.90;;;;;;4978434;28;20109;-75
2021/01/14 11:40:05;;;;;;;39.95;23.80;;;3.50;99.90;;;;;;4980485;28;20129;-76
2021/01/14 11:42:31;;;;;;;43.35;29.30;;;3.50;99.90;;;;;;4977480;28;20061;-76
2021/01/14 11:44:56;;;;;;;57.03;35.65;;;3.50;99.90;;;;;;4974906;28;20488;-75
2021/01/14 11:47:22;;;;;;;33.40;21.30;;;3.60;99.90;;;;;;4976069;28;20892;-76
2021/01/14 11:49:48;;;;;;;29.83;16.60;;;3.50;99.90;;;;;;4977900;28;20125;-76
2021/01/14 11:52:15;;;;;;;19.55;10.68;;;3.50;99.90;;;;;;4975946;28;20046;-76
2021/01/14 11:54:42;;;;;;;23.80;13.27;;;3.60;99.90;;;;;;4981191;28;20050;-76
2021/01/14 11:57:09;;;;;;;27.15;18.67;;;3.50;99.90;;;;;;4972015;28;20034;-76
2021/01/14 11:59:34;;;;;;;44.33;30.75;;;3.60;99.90;;;;;;4987398;28;20034;-74
2021/01/14 12:02:00;;;;;;;36.28;22.92;;;3.60;99.90;;;;;;4981193;28;20042;-76
2021/01/14 12:04:26;;;;;;;13.45;8.75;;;3.60;99.90;;;;;;4977225;28;20038;-76
2021/01/14 12:06:52;;;;;;;26.67;12.77;;;3.60;99.90;;;;;;4979231;28;20087;-75
2021/01/14 12:09:18;;;;;;;16.13;7.82;;;3.50;99.90;;;;;;4993414;28;20030;-76
2021/01/14 12:11:44;;;;;;;16.50;8.88;;;3.50;99.90;;;;;;4980143;28;20376;-76
2021/01/14 12:14:09;;;;;;;23.15;11.50;;;3.60;99.90;;;;;;4981664;28;20383;-76
2021/01/14 12:16:35;;;;;;;36.95;22.90;;;3.60;99.90;;;;;;4982399;28;20026;-75
2021/01/14 12:19:01;;;;;;;36.03;24.35;;;3.70;99.90;;;;;;4983875;28;20044;-75
2021/01/14 12:21:26;;;;;;;40.28;27.20;;;3.70;99.90;;;;;;4983686;28;20102;-75
2021/01/14 12:23:52;;;;;;;70.88;44.10;;;3.70;99.90;;;;;;4980537;28;20057;-76
2021/01/14 12:26:18;;;;;;;36.47;26.58;;;3.60;99.90;;;;;;4978802;28;20037;-76
2021/01/14 12:28:44;;;;;;;33.28;20.50;;;3.60;99.90;;;;;;4977772;28;20342;-75
2021/01/14 12:31:10;;;;;;;35.03;20.02;;;3.60;99.90;;;;;;4979573;28;20118;-75
2021/01/14 12:33:35;;;;;;;22.13;15.80;;;3.60;99.90;;;;;;4976700;28;20066;-75
2021/01/14 12:36:01;;;;;;;31.13;21.30;;;3.70;99.90;;;;;;4980668;28;20324;-76
2021/01/14 12:38:27;;;;;;;31.30;20.92;;;3.70;99.90;;;;;;4982761;28;20149;-76
2021/01/14 12:40:52;;;;;;;39.47;26.67;;;3.70;99.90;;;;;;4980934;28;20425;-76
2021/01/14 12:43:18;;;;;;;45.65;30.95;;;3.70;99.90;;;;;;4980587;28;20116;-75
2021/01/14 12:45:43;;;;;;;47.40;32.33;;;3.70;99.90;;;;;;4978891;28;20072;-76
2021/01/14 12:48:09;;;;;;;46.08;29.92;;;3.70;99.90;;;;;;4976398;28;20089;-76